Time;durP1;ratioP1;P1;durP2;ratioP2;P2;SDS_P1;SDS_P2;PMS_P1;PMS_P2;Temp;Humidity;BMP_temperature;BMP_pressure;BME280_temperature;BME280_humidity;BME280_pressure;Samples;Min_cycle;Max_cycle;Signal;HPM_P1;HPM_P2
2023/03/14 00:01:20;;;;;;;4.83;2.00;;;;;;;;;;5122812;28;20984;-64
2023/03/14 00:03:46;;;;;;;3.27;1.53;;;;;;;;;;5108612;28;20944;-65
2023/03/14 00:06:13;;;;;;;5.70;1.70;;;;;;;;;;5122921;28;20930;-65
2023/03/14 00:08:40;;;;;;;5.73;2.63;;;;;;;;;;5119454;28;20502;-64
2023/03/14 00:11:07;;;;;;;2.27;1.33;;;;;;;;;;5121988;28;20478;-65
2023/03/14 00:13:35;;;;;;;4.27;1.70;;;;;;;;;;5124318;28;20873;-64
2023/03/14 00:16:05;;;;;;;3.03;1.90;;;;;;;;;;5121447;28;20546;-64
2023/03/14 00:18:32;;;;;;;3.23;1.93;;;;;;;;;;5123810;28;20456;-64
2023/03/14 00:20:59;;;;;;;1.83;1.60;;;;;;;;;;5122582;28;20545;-64
2023/03/14 00:23:26;;;;;;;2.40;1.37;;;;;;;;;;5115647;28;20450;-64
2023/03/14 00:25:52;;;;;;;3.00;1.73;;;;;;;;;;5121907;28;20470;-65
2023/03/14 00:28:18;;;;;;;3.33;1.53;;;;;;;;;;5104228;28;20517;-64
2023/03/14 00:30:46;;;;;;;5.20;1.40;;;;;;;;;;5101893;28;20495;-64
2023/03/14 00:33:13;;;;;;;3.40;1.70;;;;;;;;;;5107191;28;20478;-64
2023/03/14 00:35:39;;;;;;;2.57;1.47;;;;;;;;;;5110881;28;20502;-65
2023/03/14 00:38:05;;;;;;;4.57;2.03;;;;;;;;;;5118879;28;20470;-65
2023/03/14 00:40:32;;;;;;;4.40;1.83;;;;;;;;;;5121654;28;20507;-65
2023/03/14 00:42:58;;;;;;;3.57;1.67;;;;;;;;;;5123394;28;20482;-64
2023/03/14 00:45:24;;;;;;;3.47;1.63;;;;;;;;;;5121496;28;20472;-65
2023/03/14 00:47:52;;;;;;;3.67;1.53;;;;;;;;;;5118311;28;20528;-64
2023/03/14 00:50:19;;;;;;;2.90;1.63;;;;;;;;;;5105268;28;20490;-65
2023/03/14 00:52:51;;;;;;;2.87;1.50;;;;;;;;;;5122688;28;20461;-64
2023/03/14 00:55:18;;;;;;;5.67;1.97;;;;;;;;;;5121644;28;20478;-64
2023/03/14 00:57:47;;;;;;;6.00;1.77;;;;;;;;;;5123125;28;20476;-64
2023/03/14 01:00:14;;;;;;;5.50;1.63;;;;;;;;;;5121468;28;20494;-64
2023/03/14 01:02:40;;;;;;;4.90;1.40;;;;;;;;;;5121267;28;20447;-65
2023/03/14 01:05:12;;;;;;;5.10;1.50;;;;;;;;;;5099312;28;20443;-65
2023/03/14 01:07:39;;;;;;;2.63;1.70;;;;;;;;;;5122397;28;20495;-64
2023/03/14 01:10:06;;;;;;;3.10;1.43;;;;;;;;;;5122221;28;20450;-64
2023/03/14 01:12:32;;;;;;;3.67;1.60;;;;;;;;;;5107053;28;20503;-64
2023/03/14 01:14:59;;;;;;;5.43;1.60;;;;;;;;;;5098454;28;20478;-64
2023/03/14 01:17:25;;;;;;;5.50;1.57;;;;;;;;;;5122314;28;21420;-64
2023/03/14 01:19:51;;;;;;;6.23;1.63;;;;;;;;;;5121678;28;21176;-64
2023/03/14 01:22:21;;;;;;;2.53;1.20;;;;;;;;;;5121554;28;20499;-64
2023/03/14 01:24:47;;;;;;;5.07;1.50;;;;;;;;;;5121354;28;20458;-64
2023/03/14 01:27:13;;;;;;;4.17;1.40;;;;;;;;;;5121625;28;20482;-64
2023/03/14 01:29:40;;;;;;;5.63;1.23;;;;;;;;;;5107067;28;20570;-64
2023/03/14 01:32:06;;;;;;;4.53;1.23;;;;;;;;;;5121601;28;21168;-64
2023/03/14 01:34:33;;;;;;;4.13;1.47;;;;;;;;;;5121853;28;20507;-64
2023/03/14 01:36:59;;;;;;;3.80;1.93;;;;;;;;;;5121826;28;20509;-65
2023/03/14 01:39:28;;;;;;;3.20;1.57;;;;;;;;;;5121770;28;20454;-64
2023/03/14 01:41:54;;;;;;;6.13;1.90;;;;;;;;;;5112680;28;20542;-65
2023/03/14 01:44:21;;;;;;;7.17;1.80;;;;;;;;;;5101532;28;20467;-65
2023/03/14 01:46:47;;;;;;;2.20;1.23;;;;;;;;;;5117455;28;20489;-64
2023/03/14 01:49:15;;;;;;;5.50;1.67;;;;;;;;;;5121883;28;20546;-64
2023/03/14 01:51:45;;;;;;;5.27;1.50;;;;;;;;;;5120950;28;20530;-64
2023/03/14 01:54:15;;;;;;;5.67;1.10;;;;;;;;;;5101754;28;20475;-64
2023/03/14 01:56:44;;;;;;;5.47;1.70;;;;;;;;;;5112051;28;20519;-64
2023/03/14 01:59:11;;;;;;;2.03;1.43;;;;;;;;;;5112266;28;20446;-64
2023/03/14 02:01:39;;;;;;;5.87;1.50;;;;;;;;;;5120622;28;20550;-64
2023/03/14 02:04:06;;;;;;;5.17;1.73;;;;;;;;;;5122089;28;20435;-64
2023/03/14 02:06:35;;;;;;;8.00;1.50;;;;;;;;;;5120723;28;20497;-64
2023/03/14 02:09:03;;;;;;;7.07;1.37;;;;;;;;;;5121360;28;20474;-64
2023/03/14 02:11:30;;;;;;;4.20;1.90;;;;;;;;;;5112130;28;20479;-65
2023/03/14 02:13:58;;;;;;;3.43;1.20;;;;;;;;;;5116733;28;20482;-65
2023/03/14 02:16:25;;;;;;;6.93;1.77;;;;;;;;;;5120471;28;20517;-64
2023/03/14 02:18:52;;;;;;;4.27;1.43;;;;;;;;;;5120814;28;20438;-64
2023/03/14 02:21:20;;;;;;;6.10;2.23;;;;;;;;;;5120596;28;21098;-64
2023/03/14 02:23:52;;;;;;;5.40;1.83;;;;;;;;;;5120022;28;20478;-64
2023/03/14 02:26:22;;;;;;;6.20;1.73;;;;;;;;;;5105374;28;20478;-64
2023/03/14 02:28:50;;;;;;;10.00;2.10;;;;;;;;;;5121436;28;20466;-65
2023/03/14 02:31:17;;;;;;;10.33;1.80;;;;;;;;;;5104621;28;20498;-65
2023/03/14 02:33:43;;;;;;;2.63;1.40;;;;;;;;;;5113498;28;20477;-65
2023/03/14 02:36:12;;;;;;;7.20;2.33;;;;;;;;;;5119307;28;21862;-65
2023/03/14 02:38:41;;;;;;;1.70;0.87;;;;;;;;;;5101380;28;20507;-65
2023/03/14 02:41:08;;;;;;;4.07;1.20;;;;;;;;;;5118520;28;20476;-64
2023/03/14 02:43:34;;;;;;;2.10;0.80;;;;;;;;;;5121301;28;20439;-64
2023/03/14 02:46:02;;;;;;;3.07;1.00;;;;;;;;;;5120262;28;20502;-64
2023/03/14 02:48:33;;;;;;;2.00;0.60;;;;;;;;;;5121133;28;21013;-64
2023/03/14 02:51:00;;;;;;;0.70;0.50;;;;;;;;;;5110955;28;20478;-63
2023/03/14 02:53:29;;;;;;;1.30;0.70;;;;;;;;;;5121017;28;20459;-63
2023/03/14 02:55:55;;;;;;;3.23;1.10;;;;;;;;;;5119764;28;20644;-64
2023/03/14 02:58:21;;;;;;;1.40;0.60;;;;;;;;;;5121266;28;20447;-65
2023/03/14 03:00:48;;;;;;;2.00;0.63;;;;;;;;;;5119269;28;20497;-64
2023/03/14 03:03:16;;;;;;;1.97;0.83;;;;;;;;;;5121455;28;20434;-64
2023/03/14 03:05:43;;;;;;;3.80;1.13;;;;;;;;;;5118476;28;20494;-64
2023/03/14 03:08:10;;;;;;;1.03;0.80;;;;;;;;;;5121048;28;20482;-64
2023/03/14 03:10:36;;;;;;;3.20;1.20;;;;;;;;;;5114906;28;20502;-64
2023/03/14 03:13:03;;;;;;;4.27;1.50;;;;;;;;;;5121547;28;20458;-64
2023/03/14 03:15:29;;;;;;;2.10;1.40;;;;;;;;;;5119688;28;20513;-64
2023/03/14 03:17:56;;;;;;;5.47;1.60;;;;;;;;;;5111960;28;20507;-64
2023/03/14 03:20:23;;;;;;;4.90;1.70;;;;;;;;;;5100191;28;20463;-64
2023/03/14 03:22:50;;;;;;;2.53;1.30;;;;;;;;;;5121723;28;20439;-64
2023/03/14 03:25:17;;;;;;;3.60;1.40;;;;;;;;;;5119353;28;20504;-64
2023/03/14 03:27:43;;;;;;;1.13;1.03;;;;;;;;;;5120995;28;20433;-64
2023/03/14 03:30:10;;;;;;;5.80;1.43;;;;;;;;;;5079019;28;20520;-65
2023/03/14 03:32:36;;;;;;;5.50;1.47;;;;;;;;;;5101377;28;20451;-64
2023/03/14 03:35:04;;;;;;;3.73;1.30;;;;;;;;;;5102098;28;20861;-64
2023/03/14 03:37:32;;;;;;;1.37;1.00;;;;;;;;;;5120813;28;20501;-64
2023/03/14 03:39:59;;;;;;;4.77;1.07;;;;;;;;;;5124219;28;20578;-64
2023/03/14 03:42:26;;;;;;;4.57;1.20;;;;;;;;;;5121207;28;20561;-64
2023/03/14 03:44:53;;;;;;;3.60;1.30;;;;;;;;;;5124371;28;20454;-63
2023/03/14 03:47:19;;;;;;;2.60;0.93;;;;;;;;;;5123878;28;20497;-64
2023/03/14 03:49:46;;;;;;;1.67;1.30;;;;;;;;;;5123833;28;21072;-64
2023/03/14 03:52:12;;;;;;;3.80;2.00;;;;;;;;;;5123735;28;20509;-63
2023/03/14 03:54:40;;;;;;;2.17;1.63;;;;;;;;;;5123374;28;20447;-63
2023/03/14 03:57:06;;;;;;;3.60;1.70;;;;;;;;;;5117021;28;21346;-63
2023/03/14 03:59:33;;;;;;;3.33;1.50;;;;;;;;;;5115440;28;20459;-64
2023/03/14 04:01:59;;;;;;;3.63;1.30;;;;;;;;;;5103919;28;20521;-64
2023/03/14 04:04:26;;;;;;;3.57;1.90;;;;;;;;;;5123857;28;20906;-63
2023/03/14 04:06:52;;;;;;;2.43;1.50;;;;;;;;;;5123453;28;20531;-64
2023/03/14 04:09:18;;;;;;;2.57;1.50;;;;;;;;;;5099263;28;20502;-63
2023/03/14 04:11:46;;;;;;;6.40;1.87;;;;;;;;;;5087660;28;20499;-64
2023/03/14 04:14:13;;;;;;;5.93;1.97;;;;;;;;;;5102708;28;20530;-64
2023/03/14 04:16:39;;;;;;;2.60;1.20;;;;;;;;;;5112529;28;20556;-64
2023/03/14 04:19:05;;;;;;;6.90;1.67;;;;;;;;;;5123505;28;20479;-64
2023/03/14 04:21:32;;;;;;;3.80;1.40;;;;;;;;;;5122854;28;20498;-64
2023/03/14 04:23:58;;;;;;;4.57;1.23;;;;;;;;;;5123332;28;20473;-65
2023/03/14 04:26:25;;;;;;;6.60;1.97;;;;;;;;;;5122410;28;20506;-64
2023/03/14 04:28:52;;;;;;;9.43;1.60;;;;;;;;;;5110333;28;20535;-64
2023/03/14 04:31:19;;;;;;;4.97;1.20;;;;;;;;;;5118428;28;20598;-64
2023/03/14 04:33:46;;;;;;;2.97;1.47;;;;;;;;;;5123439;28;20451;-63
2023/03/14 04:36:12;;;;;;;6.47;1.77;;;;;;;;;;5122789;28;20500;-64
2023/03/14 04:38:39;;;;;;;5.80;1.80;;;;;;;;;;5124022;28;20510;-64
2023/03/14 04:41:06;;;;;;;4.90;1.20;;;;;;;;;;5115910;28;20483;-64
2023/03/14 04:43:32;;;;;;;2.77;1.33;;;;;;;;;;5108433;28;20467;-64
2023/03/14 04:46:00;;;;;;;6.17;1.70;;;;;;;;;;5122420;28;20489;-64
2023/03/14 04:48:33;;;;;;;4.03;1.63;;;;;;;;;;5122607;28;20447;-63
2023/03/14 04:50:59;;;;;;;3.03;1.60;;;;;;;;;;5121910;28;20487;-64
2023/03/14 04:53:25;;;;;;;2.50;1.73;;;;;;;;;;5122576;28;20905;-64
2023/03/14 04:55:52;;;;;;;4.63;2.87;;;;;;;;;;5114752;28;20535;-64
2023/03/14 04:58:19;;;;;;;4.93;2.30;;;;;;;;;;5101279;28;20467;-64
2023/03/14 05:00:46;;;;;;;8.33;2.70;;;;;;;;;;5100594;28;20511;-64
2023/03/14 05:03:15;;;;;;;10.80;3.20;;;;;;;;;;5120159;28;20474;-64
2023/03/14 05:05:41;;;;;;;7.83;2.40;;;;;;;;;;5116769;28;21069;-64
2023/03/14 05:08:07;;;;;;;5.13;2.60;;;;;;;;;;5123088;28;20463;-64
2023/03/14 05:10:34;;;;;;;8.93;2.40;;;;;;;;;;5121210;28;20489;-64
2023/03/14 05:13:00;;;;;;;4.87;2.63;;;;;;;;;;5122139;28;20526;-64
2023/03/14 05:15:27;;;;;;;6.97;2.20;;;;;;;;;;5121691;28;20466;-65
2023/03/14 05:17:54;;;;;;;7.97;3.40;;;;;;;;;;5122946;28;20515;-64
2023/03/14 05:20:21;;;;;;;7.20;1.97;;;;;;;;;;5107336;28;20456;-64
2023/03/14 05:22:48;;;;;;;6.67;2.20;;;;;;;;;;5111549;28;20492;-64
2023/03/14 05:25:14;;;;;;;6.77;1.83;;;;;;;;;;5098243;28;21000;-64
2023/03/14 05:27:41;;;;;;;3.33;1.63;;;;;;;;;;5099164;28;20515;-65
2023/03/14 05:30:08;;;;;;;3.17;1.47;;;;;;;;;;5103655;28;20478;-64
2023/03/14 05:32:34;;;;;;;8.00;1.67;;;;;;;;;;5100416;28;20474;-64
2023/03/14 05:35:01;;;;;;;5.53;2.13;;;;;;;;;;5114506;28;20462;-64
2023/03/14 05:37:28;;;;;;;8.53;2.53;;;;;;;;;;5117178;28;21125;-65
2023/03/14 05:39:55;;;;;;;9.80;1.80;;;;;;;;;;5098361;28;20444;-65
2023/03/14 05:42:21;;;;;;;3.70;1.80;;;;;;;;;;5095191;28;21125;-65
2023/03/14 05:44:48;;;;;;;7.20;1.97;;;;;;;;;;5100186;28;20948;-64
2023/03/14 05:47:14;;;;;;;9.23;1.50;;;;;;;;;;5099294;28;20509;-65
2023/03/14 05:49:40;;;;;;;5.23;1.30;;;;;;;;;;5099060;28;20506;-64
2023/03/14 05:52:07;;;;;;;9.23;1.70;;;;;;;;;;5110520;28;20536;-65
2023/03/14 05:54:35;;;;;;;8.00;1.90;;;;;;;;;;5121665;28;20439;-64
2023/03/14 05:57:01;;;;;;;8.10;2.00;;;;;;;;;;5103993;28;20471;-65
2023/03/14 05:59:28;;;;;;;6.27;1.50;;;;;;;;;;5101685;28;20443;-64
2023/03/14 06:01:54;;;;;;;4.17;1.70;;;;;;;;;;5100374;28;20503;-65
2023/03/14 06:04:21;;;;;;;4.93;1.20;;;;;;;;;;5097850;28;20874;-65
2023/03/14 06:06:47;;;;;;;3.00;1.60;;;;;;;;;;5102378;28;20548;-65
2023/03/14 06:09:14;;;;;;;2.93;1.57;;;;;;;;;;5095921;28;20444;-64
2023/03/14 06:11:41;;;;;;;1.80;1.20;;;;;;;;;;5097919;28;21084;-65
2023/03/14 06:14:08;;;;;;;3.43;1.30;;;;;;;;;;5105095;28;20467;-65
2023/03/14 06:16:34;;;;;;;3.30;1.40;;;;;;;;;;5119261;28;20512;-65
2023/03/14 06:19:01;;;;;;;2.60;1.10;;;;;;;;;;5122132;28;20434;-65
2023/03/14 06:21:27;;;;;;;1.67;1.13;;;;;;;;;;5110347;28;20483;-64
2023/03/14 06:23:54;;;;;;;1.50;0.70;;;;;;;;;;5103540;28;20482;-64
2023/03/14 06:26:20;;;;;;;5.10;0.77;;;;;;;;;;5120488;28;20854;-65
2023/03/14 06:28:48;;;;;;;1.10;0.80;;;;;;;;;;5108534;28;20452;-64
2023/03/14 06:31:14;;;;;;;3.10;0.80;;;;;;;;;;5105269;28;20532;-65
2023/03/14 06:33:41;;;;;;;3.83;1.07;;;;;;;;;;5120863;28;20462;-65
2023/03/14 06:36:08;;;;;;;3.17;0.90;;;;;;;;;;5117623;28;20502;-65
2023/03/14 06:38:34;;;;;;;1.43;0.60;;;;;;;;;;5112135;28;20438;-65
2023/03/14 06:41:04;;;;;;;1.33;0.70;;;;;;;;;;5080593;28;20507;-64
2023/03/14 06:43:30;;;;;;;2.13;1.00;;;;;;;;;;5093289;28;20478;-73
2023/03/14 06:45:58;;;;;;;6.00;0.80;;;;;;;;;;5106985;28;20904;-66
2023/03/14 06:48:24;;;;;;;1.60;0.70;;;;;;;;;;5121128;28;20454;-66
2023/03/14 06:50:51;;;;;;;1.40;0.73;;;;;;;;;;5104477;28;20500;-66
2023/03/14 06:53:17;;;;;;;1.03;0.77;;;;;;;;;;5097760;28;20467;-66
2023/03/14 06:55:45;;;;;;;1.50;1.30;;;;;;;;;;5097879;28;20899;-66
2023/03/14 06:58:11;;;;;;;1.40;0.93;;;;;;;;;;5109735;28;20507;-66
2023/03/14 07:00:38;;;;;;;1.50;0.70;;;;;;;;;;5101228;28;20467;-66
2023/03/14 07:03:06;;;;;;;0.90;0.40;;;;;;;;;;5114848;28;20487;-66
2023/03/14 07:05:32;;;;;;;0.80;0.80;;;;;;;;;;5110196;28;20490;-66
2023/03/14 07:07:58;;;;;;;1.23;0.60;;;;;;;;;;5106937;28;20474;-66
2023/03/14 07:10:25;;;;;;;1.30;0.57;;;;;;;;;;5119002;28;20581;-66
2023/03/14 07:12:52;;;;;;;1.33;0.60;;;;;;;;;;5105617;28;20435;-63
2023/03/14 07:15:18;;;;;;;2.00;0.80;;;;;;;;;;5097691;28;20482;-64
2023/03/14 07:17:45;;;;;;;1.00;0.70;;;;;;;;;;5100870;28;20447;-66
2023/03/14 07:20:13;;;;;;;2.17;0.90;;;;;;;;;;5110325;28;20482;-66
2023/03/14 07:22:39;;;;;;;1.00;0.83;;;;;;;;;;5096129;28;20491;-66
2023/03/14 07:25:06;;;;;;;2.43;0.87;;;;;;;;;;5086639;28;20480;-66
2023/03/14 07:27:33;;;;;;;1.77;1.20;;;;;;;;;;5101471;28;20452;-66
2023/03/14 07:29:59;;;;;;;1.13;0.93;;;;;;;;;;5099876;28;20526;-66
2023/03/14 07:32:25;;;;;;;1.50;0.80;;;;;;;;;;5112151;28;20914;-66
2023/03/14 07:34:52;;;;;;;1.30;1.20;;;;;;;;;;5105898;28;20486;-66
2023/03/14 07:37:20;;;;;;;1.50;1.23;;;;;;;;;;5100270;28;20506;-66
2023/03/14 07:39:46;;;;;;;2.60;1.40;;;;;;;;;;5103237;28;20452;-66
2023/03/14 07:42:13;;;;;;;3.40;1.47;;;;;;;;;;5120027;28;20493;-66
2023/03/14 07:44:39;;;;;;;1.60;1.50;;;;;;;;;;5098568;28;20440;-66
2023/03/14 07:47:05;;;;;;;3.10;1.90;;;;;;;;;;5105104;28;20507;-66
2023/03/14 07:49:32;;;;;;;2.63;1.47;;;;;;;;;;5101660;28;20593;-66
2023/03/14 07:51:59;;;;;;;1.77;1.67;;;;;;;;;;5100839;28;20499;-67
2023/03/14 07:54:26;;;;;;;2.73;2.33;;;;;;;;;;5098846;28;20538;-66
2023/03/14 07:56:53;;;;;;;2.27;1.70;;;;;;;;;;5106515;28;20930;-67
2023/03/14 07:59:19;;;;;;;2.23;1.70;;;;;;;;;;5103634;28;20457;-66
2023/03/14 08:01:46;;;;;;;3.17;2.63;;;;;;;;;;5091212;28;20676;-66
2023/03/14 08:04:12;;;;;;;4.73;3.60;;;;;;;;;;5108828;28;20927;-66
2023/03/14 08:06:38;;;;;;;4.97;3.87;;;;;;;;;;5122272;28;20501;-67
2023/03/14 08:09:05;;;;;;;2.87;2.57;;;;;;;;;;5123272;28;20832;-67
2023/03/14 08:11:33;;;;;;;3.87;3.27;;;;;;;;;;5119897;28;20478;-66
2023/03/14 08:13:59;;;;;;;3.07;2.77;;;;;;;;;;5096525;28;20509;-66
2023/03/14 08:16:26;;;;;;;4.70;3.00;;;;;;;;;;5100618;28;20479;-67
2023/03/14 08:18:52;;;;;;;6.40;3.40;;;;;;;;;;5120448;28;20443;-67
2023/03/14 08:21:19;;;;;;;3.47;2.87;;;;;;;;;;5121717;28;20531;-67
2023/03/14 08:23:45;;;;;;;3.20;2.80;;;;;;;;;;5118038;28;20480;-65
2023/03/14 08:26:12;;;;;;;2.70;2.50;;;;;;;;;;5116009;28;21001;-66
2023/03/14 08:28:39;;;;;;;2.90;2.10;;;;;;;;;;5105826;28;20611;-65
2023/03/14 08:31:06;;;;;;;5.67;2.67;;;;;;;;;;5097490;28;20508;-66
2023/03/14 08:33:32;;;;;;;3.70;2.83;;;;;;;;;;5095238;28;20452;-66
2023/03/14 08:36:00;;;;;;;5.43;3.40;;;;;;;;;;5102772;28;20482;-67
2023/03/14 08:38:26;;;;;;;2.67;2.47;;;;;;;;;;5117430;28;20538;-66
2023/03/14 08:40:56;;;;;;;3.40;2.87;;;;;;;;;;5121360;28;20912;-66
2023/03/14 08:43:22;;;;;;;4.53;2.83;;;;;;;;;;5113414;28;20463;-66
2023/03/14 08:45:50;;;;;;;3.30;3.00;;;;;;;;;;5109885;28;20490;-66
2023/03/14 08:48:16;;;;;;;3.53;2.80;;;;;;;;;;5122153;28;20686;-66
2023/03/14 08:50:43;;;;;;;3.60;2.80;;;;;;;;;;5119454;28;20967;-66
2023/03/14 08:53:09;;;;;;;3.50;2.73;;;;;;;;;;5107346;28;20546;-66
2023/03/14 08:55:36;;;;;;;3.87;3.10;;;;;;;;;;5120498;28;20974;-66
2023/03/14 08:58:02;;;;;;;3.07;2.77;;;;;;;;;;5122383;28;20510;-66
2023/03/14 09:00:29;;;;;;;3.20;2.80;;;;;;;;;;5117271;28;20498;-66
2023/03/14 09:02:57;;;;;;;4.50;3.30;;;;;;;;;;5121268;28;20743;-66
2023/03/14 09:05:23;;;;;;;4.07;2.70;;;;;;;;;;5102599;28;20535;-66
2023/03/14 09:07:49;;;;;;;3.27;2.80;;;;;;;;;;5103432;28;20461;-66
2023/03/14 09:10:16;;;;;;;5.57;3.60;;;;;;;;;;5098420;28;20848;-66
2023/03/14 09:12:42;;;;;;;3.67;3.13;;;;;;;;;;5094550;28;20452;-65
2023/03/14 09:15:09;;;;;;;2.60;2.40;;;;;;;;;;5107777;28;20733;-66
2023/03/14 09:17:36;;;;;;;6.10;2.47;;;;;;;;;;5120715;28;20454;-66
2023/03/14 09:20:06;;;;;;;2.90;2.70;;;;;;;;;;5081659;28;20436;-66
2023/03/14 09:22:33;;;;;;;3.03;2.63;;;;;;;;;;5099271;28;20967;-66
2023/03/14 09:24:59;;;;;;;3.27;2.83;;;;;;;;;;5082903;28;20470;-66
2023/03/14 09:27:25;;;;;;;4.60;3.13;;;;;;;;;;5107131;28;20506;-66
2023/03/14 09:29:52;;;;;;;3.00;2.80;;;;;;;;;;5101365;28;20994;-66
2023/03/14 09:32:18;;;;;;;2.80;2.60;;;;;;;;;;5102124;28;20487;-65
2023/03/14 09:34:45;;;;;;;2.97;2.77;;;;;;;;;;5095204;28;20863;-66
2023/03/14 09:37:15;;;;;;;6.17;2.80;;;;;;;;;;5080674;28;20484;-66
2023/03/14 09:39:41;;;;;;;3.77;3.20;;;;;;;;;;5097994;28;20439;-66
2023/03/14 09:42:09;;;;;;;3.00;2.70;;;;;;;;;;5119749;28;20502;-66
2023/03/14 09:44:40;;;;;;;3.40;2.70;;;;;;;;;;5120803;28;20482;-66
2023/03/14 09:47:07;;;;;;;3.17;2.70;;;;;;;;;;5119929;28;20518;-66
2023/03/14 09:49:35;;;;;;;3.10;2.63;;;;;;;;;;5120740;28;20464;-66
2023/03/14 09:52:02;;;;;;;2.73;2.53;;;;;;;;;;5120168;28;20478;-66
2023/03/14 09:54:35;;;;;;;2.33;2.13;;;;;;;;;;5119208;28;20455;-66
2023/03/14 09:57:02;;;;;;;2.33;2.07;;;;;;;;;;5101457;28;20992;-66
2023/03/14 09:59:30;;;;;;;2.07;1.97;;;;;;;;;;5113164;28;20443;-65
2023/03/14 10:01:57;;;;;;;2.00;1.90;;;;;;;;;;5105022;28;20525;-65
2023/03/14 10:04:24;;;;;;;1.87;1.73;;;;;;;;;;5119894;28;20447;-65
2023/03/14 10:06:51;;;;;;;2.03;1.83;;;;;;;;;;5119391;28;20574;-65
2023/03/14 10:09:24;;;;;;;2.43;2.23;;;;;;;;;;5120047;28;20446;-64
2023/03/14 10:11:57;;;;;;;2.60;2.07;;;;;;;;;;5118411;28;20535;-65
2023/03/14 10:14:31;;;;;;;3.10;2.83;;;;;;;;;;5120532;28;20430;-64
2023/03/14 10:17:05;;;;;;;2.70;2.50;;;;;;;;;;5119100;28;20635;-65
2023/03/14 10:19:31;;;;;;;2.50;2.30;;;;;;;;;;5120554;28;20451;-65
2023/03/14 10:22:01;;;;;;;2.80;2.60;;;;;;;;;;5118886;28;20539;-65
2023/03/14 10:24:29;;;;;;;3.00;2.70;;;;;;;;;;5119673;28;20427;-64
2023/03/14 10:27:01;;;;;;;3.53;2.77;;;;;;;;;;5119914;28;20478;-65
2023/03/14 10:29:27;;;;;;;3.10;2.80;;;;;;;;;;5120147;28;20446;-65
2023/03/14 10:31:55;;;;;;;3.17;2.97;;;;;;;;;;5118269;28;20581;-65
2023/03/14 10:34:25;;;;;;;3.40;3.10;;;;;;;;;;5120039;28;20904;-65
2023/03/14 10:36:55;;;;;;;3.30;3.03;;;;;;;;;;5119141;28;20508;-65
2023/03/14 10:39:27;;;;;;;1.60;1.30;;;;;;;;;;5119973;28;20510;-65
2023/03/14 10:41:54;;;;;;;1.43;1.33;;;;;;;;;;5118170;28;20479;-65
2023/03/14 10:44:23;;;;;;;1.20;1.10;;;;;;;;;;5120016;28;20470;-65
2023/03/14 10:46:56;;;;;;;1.10;1.00;;;;;;;;;;5119279;28;20958;-65
2023/03/14 10:49:27;;;;;;;0.73;0.73;;;;;;;;;;5083845;28;20436;-65
2023/03/14 10:51:54;;;;;;;0.73;0.70;;;;;;;;;;5097117;28;20509;-65
2023/03/14 10:54:21;;;;;;;1.10;0.83;;;;;;;;;;5099252;28;20444;-64
2023/03/14 10:56:56;;;;;;;4.03;0.53;;;;;;;;;;5093435;28;20506;-64
2023/03/14 10:59:24;;;;;;;1.20;0.70;;;;;;;;;;5097540;28;20468;-64
2023/03/14 11:01:55;;;;;;;1.60;0.80;;;;;;;;;;5112027;28;20484;-65
2023/03/14 11:04:26;;;;;;;2.90;0.70;;;;;;;;;;5108992;28;20435;-65
2023/03/14 11:06:56;;;;;;;1.10;0.60;;;;;;;;;;5103043;28;20479;-64
2023/03/14 11:09:28;;;;;;;0.57;0.57;;;;;;;;;;5121684;28;20442;-65
2023/03/14 11:11:59;;;;;;;1.30;0.63;;;;;;;;;;5118905;28;20550;-64
2023/03/14 11:14:31;;;;;;;1.50;0.67;;;;;;;;;;5102972;28;20873;-64
2023/03/14 11:17:01;;;;;;;1.10;0.70;;;;;;;;;;5092896;28;20497;-65
2023/03/14 11:19:33;;;;;;;0.73;0.57;;;;;;;;;;5109645;28;20473;-64
2023/03/14 11:22:02;;;;;;;0.60;0.50;;;;;;;;;;5102973;28;20500;-65
2023/03/14 11:24:33;;;;;;;1.13;0.83;;;;;;;;;;5104686;28;20472;-65
2023/03/14 11:27:03;;;;;;;1.83;0.77;;;;;;;;;;5095503;28;20484;-65
2023/03/14 11:29:34;;;;;;;1.10;0.70;;;;;;;;;;5097655;28;20497;-64
2023/03/14 11:32:02;;;;;;;1.40;0.70;;;;;;;;;;5120975;28;20498;-64
2023/03/14 11:34:29;;;;;;;0.77;0.77;;;;;;;;;;5123524;28;20507;-64
2023/03/14 11:37:00;;;;;;;1.47;0.60;;;;;;;;;;5121713;28;20557;-64
2023/03/14 11:39:30;;;;;;;1.43;0.90;;;;;;;;;;5107430;28;20439;-65
2023/03/14 11:41:58;;;;;;;0.60;0.60;;;;;;;;;;5109630;28;20515;-66
2023/03/14 11:44:26;;;;;;;0.70;0.70;;;;;;;;;;5095319;28;20431;-65
2023/03/14 11:46:57;;;;;;;0.67;0.67;;;;;;;;;;5089557;28;20774;-65
2023/03/14 11:49:30;;;;;;;0.70;0.70;;;;;;;;;;5100635;28;20449;-65
2023/03/14 11:51:57;;;;;;;1.37;0.63;;;;;;;;;;5110358;28;20510;-65
2023/03/14 11:54:29;;;;;;;2.03;0.83;;;;;;;;;;5105521;28;20954;-65
2023/03/14 11:56:56;;;;;;;0.60;0.60;;;;;;;;;;5122633;28;20482;-65
2023/03/14 11:59:25;;;;;;;1.03;0.93;;;;;;;;;;5117644;28;20445;-65
2023/03/14 12:01:54;;;;;;;1.63;0.90;;;;;;;;;;5087927;28;20472;-65
2023/03/14 12:04:27;;;;;;;1.10;0.90;;;;;;;;;;5123207;28;20435;-65
2023/03/14 12:06:53;;;;;;;1.03;0.93;;;;;;;;;;5117823;28;20524;-65
2023/03/14 12:09:20;;;;;;;1.37;0.87;;;;;;;;;;5100117;28;20447;-65
2023/03/14 12:11:50;;;;;;;2.87;1.07;;;;;;;;;;5093951;28;20814;-65
2023/03/14 12:14:18;;;;;;;3.03;1.07;;;;;;;;;;5103236;28;20457;-65
2023/03/14 12:16:46;;;;;;;3.27;1.93;;;;;;;;;;5104298;28;20916;-65
2023/03/14 12:19:31;;;;;;;3.47;1.40;;;;;;;;;;5123653;28;20487;-65
2023/03/14 12:22:01;;;;;;;2.67;1.13;;;;;;;;;;5101652;28;20573;-65
2023/03/14 12:24:30;;;;;;;6.30;1.50;;;;;;;;;;5107060;28;20453;-65
2023/03/14 12:26:57;;;;;;;4.43;1.23;;;;;;;;;;5102374;28;20479;-65
2023/03/14 12:29:24;;;;;;;4.13;1.20;;;;;;;;;;5118886;28;20444;-65
2023/03/14 12:32:07;;;;;;;3.93;2.27;;;;;;;;;;5120793;28;20883;-65
2023/03/14 12:34:34;;;;;;;4.50;1.20;;;;;;;;;;5122631;28;20471;-65
2023/03/14 12:37:15;;;;;;;4.20;2.27;;;;;;;;;;5121814;28;20478;-65
2023/03/14 12:39:46;;;;;;;2.97;1.33;;;;;;;;;;5112017;28;20454;-65
2023/03/14 12:42:14;;;;;;;2.30;1.10;;;;;;;;;;5120907;28;20474;-65
2023/03/14 12:44:47;;;;;;;5.53;1.57;;;;;;;;;;5121802;28;20441;-65
2023/03/14 12:47:28;;;;;;;4.83;1.47;;;;;;;;;;5119111;28;20527;-64
2023/03/14 12:49:57;;;;;;;5.60;1.60;;;;;;;;;;5083415;28;20888;-64
2023/03/14 12:52:32;;;;;;;3.97;2.13;;;;;;;;;;5100954;28;20483;-65
2023/03/14 12:55:02;;;;;;;2.03;1.47;;;;;;;;;;5122162;28;20431;-64
2023/03/14 12:57:29;;;;;;;9.67;1.83;;;;;;;;;;5105696;28;20511;-64
2023/03/14 12:59:56;;;;;;;7.37;1.63;;;;;;;;;;5100267;28;20591;-65
2023/03/14 13:02:25;;;;;;;4.63;2.07;;;;;;;;;;5104496;28;20502;-64
2023/03/14 13:04:52;;;;;;;4.30;1.80;;;;;;;;;;5118048;28;20469;-64
2023/03/14 13:07:33;;;;;;;4.07;1.53;;;;;;;;;;5120632;28;20493;-64
2023/03/14 13:10:06;;;;;;;3.93;2.23;;;;;;;;;;5102148;28;20844;-64
2023/03/14 13:12:38;;;;;;;5.50;1.50;;;;;;;;;;5100627;28;20503;-64
2023/03/14 13:15:13;;;;;;;3.97;2.10;;;;;;;;;;5111072;28;20473;-64
2023/03/14 13:17:41;;;;;;;8.73;1.50;;;;;;;;;;5106048;28;20466;-64
2023/03/14 13:20:12;;;;;;;3.47;1.67;;;;;;;;;;5114580;28;20464;-64
2023/03/14 13:22:39;;;;;;;8.70;2.20;;;;;;;;;;5115391;28;20455;-64
2023/03/14 13:25:08;;;;;;;5.03;1.50;;;;;;;;;;5120999;28;20478;-64
2023/03/14 13:27:35;;;;;;;6.60;1.80;;;;;;;;;;5108481;28;20468;-64
2023/03/14 13:30:06;;;;;;;5.37;1.47;;;;;;;;;;5105718;28;20478;-64
2023/03/14 13:32:33;;;;;;;5.13;2.10;;;;;;;;;;5101003;28;20478;-64
2023/03/14 13:35:01;;;;;;;5.53;2.13;;;;;;;;;;5121773;28;20500;-64
2023/03/14 13:37:27;;;;;;;7.83;1.63;;;;;;;;;;5119945;28;20474;-64
2023/03/14 13:39:55;;;;;;;7.83;1.93;;;;;;;;;;5121391;28;20501;-64
2023/03/14 13:42:25;;;;;;;14.37;3.40;;;;;;;;;;5119101;28;20476;-64
2023/03/14 13:44:53;;;;;;;8.73;2.17;;;;;;;;;;5121196;28;20455;-64
2023/03/14 13:47:21;;;;;;;18.90;4.40;;;;;;;;;;5118364;28;20478;-64
2023/03/14 13:49:49;;;;;;;10.93;3.17;;;;;;;;;;5120997;28;20450;-64
2023/03/14 13:52:22;;;;;;;6.30;2.33;;;;;;;;;;5120048;28;20487;-64
2023/03/14 13:54:49;;;;;;;10.10;3.07;;;;;;;;;;5121367;28;20434;-64
2023/03/14 13:57:15;;;;;;;11.57;2.87;;;;;;;;;;5119948;28;20520;-64
2023/03/14 13:59:43;;;;;;;6.43;2.40;;;;;;;;;;5115764;28;20454;-65
2023/03/14 14:02:13;;;;;;;13.37;3.47;;;;;;;;;;5114695;28;20543;-65
2023/03/14 14:04:40;;;;;;;11.83;2.27;;;;;;;;;;5121210;28;20878;-64
2023/03/14 14:07:08;;;;;;;13.50;3.20;;;;;;;;;;5109035;28;20570;-65
2023/03/14 14:09:37;;;;;;;11.57;3.33;;;;;;;;;;5121056;28;20907;-64
2023/03/14 14:12:05;;;;;;;12.13;2.40;;;;;;;;;;5119349;28;20851;-64
2023/03/14 14:14:33;;;;;;;7.40;2.20;;;;;;;;;;5119925;28;20454;-64
2023/03/14 14:17:02;;;;;;;11.23;2.40;;;;;;;;;;5080008;28;20516;-64
2023/03/14 14:19:31;;;;;;;9.23;2.60;;;;;;;;;;5107618;28;20443;-65
2023/03/14 14:21:58;;;;;;;13.30;2.97;;;;;;;;;;5118643;28;20703;-64
2023/03/14 14:24:25;;;;;;;11.60;3.40;;;;;;;;;;5117067;28;20671;-64
2023/03/14 14:26:53;;;;;;;11.43;2.20;;;;;;;;;;5105063;28;20487;-64
2023/03/14 14:29:26;;;;;;;12.50;3.00;;;;;;;;;;5087158;28;20547;-64
2023/03/14 14:32:01;;;;;;;9.07;2.20;;;;;;;;;;5090458;28;20489;-64
2023/03/14 14:34:28;;;;;;;10.13;2.60;;;;;;;;;;5108828;28;20443;-64
2023/03/14 14:36:54;;;;;;;6.50;2.30;;;;;;;;;;5088645;28;20518;-64
2023/03/14 14:39:21;;;;;;;19.73;2.10;;;;;;;;;;5105113;28;20442;-65
2023/03/14 14:41:49;;;;;;;9.30;2.40;;;;;;;;;;5115701;28;20578;-64
2023/03/14 14:44:18;;;;;;;12.43;2.47;;;;;;;;;;5105713;28;20445;-64
2023/03/14 14:46:44;;;;;;;13.27;3.80;;;;;;;;;;5098015;28;20860;-64